Time;durP1;ratioP1;P1;durP2;ratioP2;P2;SDS_P1;SDS_P2;PMS_P1;PMS_P2;Temp;Humidity;BMP_temperature;BMP_pressure;BME280_temperature;BME280_humidity;BME280_pressure;Samples;Min_cycle;Max_cycle;Signal;HPM_P1;HPM_P2
2023/07/23 00:00:12;;;;;;;3.92;2.80;;;19.30;1.00;;;;;;7390759;19;20481;-70
2023/07/23 00:02:45;;;;;;;3.50;2.95;;;19.30;1.00;;;;;;7393858;19;20045;-69
2023/07/23 00:05:15;;;;;;;4.18;3.10;;;19.30;1.00;;;;;;7392901;19;20158;-68
2023/07/23 00:07:45;;;;;;;6.90;3.22;;;19.40;1.00;;;;;;7394003;19;20018;-69
2023/07/23 00:10:15;;;;;;;4.07;3.00;;;19.40;1.00;;;;;;7392274;19;20124;-70
2023/07/23 00:12:45;;;;;;;3.55;2.97;;;19.30;1.00;;;;;;7393345;19;20126;-68
2023/07/23 00:15:16;;;;;;;4.15;2.55;;;19.30;1.00;;;;;;7392840;19;20018;-69
2023/07/23 00:17:48;;;;;;;4.25;3.10;;;19.20;1.00;;;;;;7393665;19;20019;-69
2023/07/23 00:20:18;;;;;;;5.43;2.95;;;19.10;1.00;;;;;;7392207;19;20014;-69
2023/07/23 00:22:48;;;;;;;5.88;3.33;;;19.10;1.00;;;;;;7391682;19;20015;-69
2023/07/23 00:25:18;;;;;;;4.55;3.00;;;19.10;1.00;;;;;;7392884;19;20417;-69
2023/07/23 00:27:48;;;;;;;4.50;3.20;;;19.10;1.00;;;;;;7393110;19;20484;-68
2023/07/23 00:30:18;;;;;;;4.38;3.13;;;19.00;1.00;;;;;;7392127;19;20019;-68
2023/07/23 00:32:50;;;;;;;4.53;3.13;;;19.00;1.00;;;;;;7394072;19;20011;-68
2023/07/23 00:35:20;;;;;;;3.50;2.92;;;18.90;1.00;;;;;;7392243;19;20082;-69
2023/07/23 00:37:50;;;;;;;4.03;3.10;;;18.90;1.00;;;;;;7392893;19;20030;-69
2023/07/23 00:40:20;;;;;;;4.88;2.97;;;18.90;1.00;;;;;;7391367;19;20018;-69
2023/07/23 00:42:50;;;;;;;3.75;2.92;;;18.80;1.00;;;;;;7391004;19;20011;-69
2023/07/23 00:45:22;;;;;;;5.93;3.28;;;18.80;1.00;;;;;;7391956;19;20088;-69
2023/07/23 00:47:55;;;;;;;4.63;2.90;;;18.80;1.00;;;;;;7392554;19;20037;-69
2023/07/23 00:50:29;;;;;;;4.88;2.78;;;18.70;1.00;;;;;;7390937;19;20017;-69
2023/07/23 00:52:59;;;;;;;4.85;3.03;;;18.60;1.00;;;;;;7391971;19;20049;-69
2023/07/23 00:55:29;;;;;;;6.03;2.95;;;18.70;1.00;;;;;;7391803;19;20092;-69
2023/07/23 00:57:59;;;;;;;7.38;3.13;;;18.60;1.00;;;;;;7391765;19;20023;-69
2023/07/23 01:00:29;;;;;;;6.13;2.90;;;18.40;1.00;;;;;;7390845;19;20015;-68
2023/07/23 01:03:02;;;;;;;5.53;3.17;;;18.30;1.00;;;;;;7390366;19;20505;-68
2023/07/23 01:05:32;;;;;;;4.38;2.85;;;18.30;1.00;;;;;;7391141;19;20035;-69
2023/07/23 01:08:03;;;;;;;3.80;2.80;;;18.20;1.00;;;;;;7392124;19;20031;-69
2023/07/23 01:10:34;;;;;;;7.38;2.80;;;18.20;1.00;;;;;;7390777;19;20022;-69
2023/07/23 01:13:04;;;;;;;3.15;2.53;;;18.20;1.00;;;;;;7391937;19;20034;-69
2023/07/23 01:15:36;;;;;;;4.07;3.05;;;18.20;1.00;;;;;;7391214;19;20088;-69
2023/07/23 01:18:09;;;;;;;3.85;2.60;;;18.10;1.00;;;;;;7391157;19;20015;-69
2023/07/23 01:20:38;;;;;;;4.18;2.70;;;18.10;1.00;;;;;;7389941;19;20046;-68
2023/07/23 01:23:11;;;;;;;4.18;2.90;;;18.00;1.00;;;;;;7389839;19;20138;-68
2023/07/23 01:25:41;;;;;;;5.43;2.70;;;18.00;1.00;;;;;;7390795;19;20077;-68
2023/07/23 01:28:11;;;;;;;6.93;2.90;;;17.90;1.00;;;;;;7391255;19;20018;-68
2023/07/23 01:30:41;;;;;;;4.38;2.60;;;17.90;1.00;;;;;;7391329;19;20045;-69
2023/07/23 01:33:12;;;;;;;3.15;2.63;;;17.90;1.00;;;;;;7397373;19;20103;-68
2023/07/23 01:35:42;;;;;;;3.72;2.72;;;17.90;1.00;;;;;;7397927;19;20015;-69
2023/07/23 01:38:16;;;;;;;5.57;2.72;;;17.80;1.00;;;;;;7398500;19;20039;-69
2023/07/23 01:40:46;;;;;;;3.75;2.60;;;17.80;1.00;;;;;;7396468;19;20014;-69
2023/07/23 01:43:16;;;;;;;4.47;2.42;;;17.80;1.00;;;;;;7396525;19;20074;-69
2023/07/23 01:45:47;;;;;;;4.15;2.60;;;17.80;1.00;;;;;;7398034;19;20527;-69
2023/07/23 01:48:18;;;;;;;6.50;2.97;;;17.90;1.00;;;;;;7398043;19;20018;-69
2023/07/23 01:50:48;;;;;;;4.05;3.13;;;17.90;1.00;;;;;;7394673;19;20074;-69
2023/07/23 01:53:22;;;;;;;3.75;2.72;;;18.00;1.00;;;;;;7398038;19;20022;-69
2023/07/23 01:55:51;;;;;;;5.97;2.45;;;18.00;1.00;;;;;;7397935;19;20383;-69
2023/07/23 01:58:21;;;;;;;3.75;2.65;;;18.00;1.00;;;;;;7397790;19;20419;-68
2023/07/23 02:00:51;;;;;;;3.90;2.47;;;18.10;1.00;;;;;;7396560;19;20097;-68
2023/07/23 02:03:21;;;;;;;3.33;2.45;;;18.10;1.00;;;;;;7395301;19;20091;-68
2023/07/23 02:05:57;;;;;;;3.25;2.38;;;18.00;1.00;;;;;;7397453;19;20010;-68
2023/07/23 02:08:30;;;;;;;3.67;2.45;;;18.00;1.00;;;;;;7398128;19;20027;-68
2023/07/23 02:11:01;;;;;;;2.70;2.13;;;18.10;1.00;;;;;;7395808;19;20034;-68
2023/07/23 02:13:32;;;;;;;3.28;2.30;;;18.00;1.00;;;;;;7397141;19;20359;-68
2023/07/23 02:16:02;;;;;;;2.92;2.30;;;18.10;1.00;;;;;;7397216;19;20035;-68
2023/07/23 02:18:32;;;;;;;4.82;2.63;;;18.00;1.00;;;;;;7396882;19;20033;-68
2023/07/23 02:21:02;;;;;;;3.67;2.40;;;18.10;1.00;;;;;;7395094;19;20014;-68
2023/07/23 02:23:34;;;;;;;3.35;2.50;;;18.10;1.00;;;;;;7395384;19;20086;-68
2023/07/23 02:26:04;;;;;;;5.20;2.30;;;18.00;1.00;;;;;;7396948;19;20022;-69
2023/07/23 02:28:34;;;;;;;3.03;2.40;;;18.00;1.00;;;;;;7396925;19;20034;-69
2023/07/23 02:31:04;;;;;;;4.28;2.35;;;18.00;1.00;;;;;;7394741;19;20096;-69
2023/07/23 02:33:34;;;;;;;3.70;2.58;;;17.90;1.00;;;;;;7394609;19;20015;-69
2023/07/23 02:36:04;;;;;;;4.18;2.65;;;17.90;1.00;;;;;;7396593;19;20559;-69
2023/07/23 02:38:37;;;;;;;3.05;2.10;;;17.90;1.00;;;;;;7397432;19;20018;-68
2023/07/23 02:41:07;;;;;;;3.30;2.53;;;17.80;1.00;;;;;;7394173;19;20467;-69
2023/07/23 02:43:37;;;;;;;3.90;2.80;;;17.70;1.00;;;;;;7392103;19;20021;-68
2023/07/23 02:46:06;;;;;;;4.00;2.45;;;17.70;1.00;;;;;;7396276;19;20047;-68
2023/07/23 02:48:36;;;;;;;3.33;2.33;;;17.70;1.00;;;;;;7396528;19;20052;-68
2023/07/23 02:51:06;;;;;;;3.97;2.40;;;17.80;1.00;;;;;;7394232;19;20495;-69
2023/07/23 02:53:39;;;;;;;3.30;2.45;;;17.70;1.00;;;;;;7395646;19;20073;-69
2023/07/23 02:56:09;;;;;;;4.95;2.60;;;17.70;1.00;;;;;;7396544;19;20052;-69
2023/07/23 02:58:39;;;;;;;3.92;2.28;;;17.60;1.00;;;;;;7395980;19;20027;-69
2023/07/23 03:01:09;;;;;;;3.83;2.33;;;17.60;1.00;;;;;;7394103;19;20053;-69
2023/07/23 03:03:39;;;;;;;3.25;2.60;;;17.70;1.00;;;;;;7394308;19;20025;-69
2023/07/23 03:06:09;;;;;;;3.15;2.25;;;17.60;1.00;;;;;;7395605;19;20014;-68
2023/07/23 03:08:42;;;;;;;3.85;2.55;;;17.70;1.00;;;;;;7395554;19;20035;-69
2023/07/23 03:11:12;;;;;;;4.03;2.60;;;17.70;1.00;;;;;;7394023;19;20027;-69
2023/07/23 03:13:42;;;;;;;3.75;2.50;;;17.70;1.00;;;;;;7395222;19;20026;-69
2023/07/23 03:16:12;;;;;;;3.83;2.45;;;17.70;1.00;;;;;;7395410;19;20537;-69
2023/07/23 03:18:42;;;;;;;5.43;2.70;;;17.70;1.00;;;;;;7395399;19;20097;-69
2023/07/23 03:21:12;;;;;;;4.57;2.55;;;17.70;1.00;;;;;;7393791;19;20019;-69
2023/07/23 03:23:44;;;;;;;4.95;2.67;;;17.70;1.00;;;;;;7393779;19;20387;-69
2023/07/23 03:26:14;;;;;;;5.65;2.90;;;17.70;1.00;;;;;;7395204;19;20089;-68
2023/07/23 03:28:44;;;;;;;3.35;2.67;;;17.70;1.00;;;;;;7393373;19;20028;-69
2023/07/23 03:31:14;;;;;;;3.25;2.15;;;17.70;1.00;;;;;;7392842;19;20091;-69
2023/07/23 03:33:44;;;;;;;3.70;2.45;;;17.70;1.00;;;;;;7394646;19;20025;-69
2023/07/23 03:36:14;;;;;;;2.95;2.50;;;17.60;1.00;;;;;;7394937;19;20070;-69
2023/07/23 03:38:46;;;;;;;3.67;2.70;;;17.60;1.00;;;;;;7394373;19;20399;-69
2023/07/23 03:41:16;;;;;;;5.03;2.45;;;17.70;1.00;;;;;;7393006;19;20094;-69
2023/07/23 03:43:47;;;;;;;3.05;2.45;;;17.70;1.00;;;;;;7392817;19;20027;-69
2023/07/23 03:46:17;;;;;;;3.55;2.67;;;17.70;1.00;;;;;;7394002;19;20019;-69
2023/07/23 03:48:47;;;;;;;2.83;2.08;;;17.80;1.00;;;;;;7394221;19;20014;-69
2023/07/23 03:51:18;;;;;;;2.72;1.83;;;17.80;1.00;;;;;;7392364;19;20711;-69
2023/07/23 03:53:50;;;;;;;2.78;2.15;;;17.90;1.00;;;;;;7392955;19;20022;-69
2023/07/23 03:56:20;;;;;;;4.35;2.00;;;17.90;1.00;;;;;;7393585;19;20481;-69
2023/07/23 03:58:50;;;;;;;3.67;2.63;;;17.90;1.00;;;;;;7394395;19;20082;-69
2023/07/23 04:01:20;;;;;;;4.32;2.30;;;17.90;1.00;;;;;;7392058;19;20029;-69
2023/07/23 04:03:50;;;;;;;3.63;2.10;;;18.10;1.00;;;;;;7392668;19;20038;-69
2023/07/23 04:06:20;;;;;;;3.03;2.10;;;18.40;1.00;;;;;;7393551;19;20025;-69
2023/07/23 04:08:53;;;;;;;2.70;2.10;;;19.00;1.00;;;;;;7391904;19;20015;-69
2023/07/23 04:11:23;;;;;;;4.72;2.17;;;19.70;1.00;;;;;;7390789;19;20011;-68
2023/07/23 04:13:53;;;;;;;2.60;2.08;;;20.10;1.00;;;;;;7393268;19;20018;-68
2023/07/23 04:16:23;;;;;;;5.25;2.22;;;20.20;1.00;;;;;;7394024;19;20010;-68
2023/07/23 04:18:54;;;;;;;2.67;2.10;;;20.60;1.00;;;;;;7393724;19;20015;-68
2023/07/23 04:21:25;;;;;;;3.03;2.00;;;21.50;1.00;;;;;;7391668;19;20383;-68
2023/07/23 04:24:00;;;;;;;2.97;2.13;;;21.10;1.00;;;;;;7392042;19;20014;-69
2023/07/23 04:26:31;;;;;;;2.60;2.22;;;21.70;1.00;;;;;;7393162;19;20550;-69
2023/07/23 04:29:01;;;;;;;3.65;2.22;;;22.10;1.00;;;;;;7393321;19;20013;-69
2023/07/23 04:31:31;;;;;;;4.22;1.92;;;22.90;1.00;;;;;;7391215;19;20507;-69
2023/07/23 04:34:03;;;;;;;3.00;2.20;;;23.20;1.00;;;;;;7392615;19;20010;-70
2023/07/23 04:36:33;;;;;;;3.42;2.35;;;23.50;1.00;;;;;;7391077;19;20025;-69
2023/07/23 04:39:06;;;;;;;3.97;2.13;;;24.00;1.00;;;;;;7392860;19;20018;-69
2023/07/23 04:41:36;;;;;;;3.47;2.10;;;23.90;1.00;;;;;;7391014;19;20058;-70
2023/07/23 04:44:06;;;;;;;3.20;2.40;;;24.60;1.00;;;;;;7391321;19;20018;-69
2023/07/23 04:46:36;;;;;;;2.80;1.98;;;23.90;1.00;;;;;;7393240;19;20053;-69
2023/07/23 04:49:06;;;;;;;2.88;1.92;;;23.30;1.00;;;;;;7392193;19;20035;-70
2023/07/23 04:51:36;;;;;;;3.42;1.95;;;23.40;1.00;;;;;;7391076;19;20031;-70
2023/07/23 04:54:08;;;;;;;2.78;2.20;;;22.70;1.00;;;;;;7392171;19;20082;-69
2023/07/23 04:56:39;;;;;;;5.32;2.17;;;22.80;1.00;;;;;;7392466;19;20045;-69
2023/07/23 04:59:09;;;;;;;2.67;2.10;;;23.30;1.00;;;;;;7392264;19;20566;-69
2023/07/23 05:01:39;;;;;;;2.50;1.88;;;22.60;1.00;;;;;;7390441;19;20018;-70
2023/07/23 05:04:10;;;;;;;2.80;2.00;;;22.80;1.00;;;;;;7391305;19;20391;-69
2023/07/23 05:06:40;;;;;;;3.38;2.20;;;23.80;1.00;;;;;;7390296;19;20043;-70
2023/07/23 05:09:13;;;;;;;4.18;2.10;;;24.50;1.00;;;;;;7391713;19;20018;-69
2023/07/23 05:11:43;;;;;;;2.70;2.10;;;25.20;1.00;;;;;;7390710;19;20014;-69
2023/07/23 05:14:13;;;;;;;2.67;1.90;;;24.30;1.00;;;;;;7391453;19;20068;-69
2023/07/23 05:16:42;;;;;;;3.30;2.25;;;24.50;1.00;;;;;;7391924;19;20014;-70
2023/07/23 05:19:12;;;;;;;2.60;1.80;;;24.70;1.00;;;;;;7392003;19;20006;-70
2023/07/23 05:21:42;;;;;;;2.67;2.10;;;24.20;1.00;;;;;;7389326;19;20031;-69
2023/07/23 05:24:15;;;;;;;2.50;1.60;;;25.10;1.00;;;;;;7390826;19;20024;-69
2023/07/23 05:26:45;;;;;;;2.75;1.67;;;25.80;1.00;;;;;;7389327;19;20715;-69
2023/07/23 05:29:15;;;;;;;2.47;1.88;;;25.10;1.00;;;;;;7391258;19;20018;-69
2023/07/23 05:31:45;;;;;;;3.25;1.95;;;24.60;1.00;;;;;;7389350;19;20018;-69
2023/07/23 05:34:15;;;;;;;2.10;1.70;;;25.70;1.00;;;;;;7390928;19;20038;-69
2023/07/23 05:36:45;;;;;;;5.90;2.22;;;26.00;1.00;;;;;;7389379;19;20010;-69
2023/07/23 05:39:18;;;;;;;2.80;1.85;;;27.10;1.00;;;;;;7390020;19;20130;-69
2023/07/23 05:41:48;;;;;;;4.07;2.13;;;27.80;1.00;;;;;;7391041;19;20018;-69
2023/07/23 05:44:18;;;;;;;2.13;1.70;;;27.10;1.00;;;;;;7389734;19;20258;-69
2023/07/23 05:46:48;;;;;;;4.38;1.92;;;26.70;1.00;;;;;;7390810;19;20575;-69
2023/07/23 05:49:18;;;;;;;3.20;2.00;;;26.40;1.00;;;;;;7389021;19;20018;-68
2023/07/23 05:51:48;;;;;;;3.58;1.95;;;27.50;1.00;;;;;;7391004;19;20011;-68
2023/07/23 05:54:20;;;;;;;3.03;2.05;;;27.40;1.00;;;;;;7390300;19;20771;-69
2023/07/23 05:56:50;;;;;;;3.78;2.47;;;27.10;1.00;;;;;;7390867;19;20044;-69
2023/07/23 05:59:20;;;;;;;2.90;2.00;;;27.10;1.00;;;;;;7390398;19;20010;-69
2023/07/23 06:01:50;;;;;;;2.33;1.95;;;27.30;1.00;;;;;;7390723;19;20085;-69
2023/07/23 06:04:20;;;;;;;3.97;2.10;;;27.30;1.00;;;;;;7389669;19;20027;-69
2023/07/23 06:06:50;;;;;;;2.15;1.80;;;25.90;1.00;;;;;;7390260;19;20014;-69
2023/07/23 06:09:23;;;;;;;7.18;2.15;;;24.80;1.00;;;;;;7389972;19;20026;-69
2023/07/23 06:11:55;;;;;;;2.65;1.85;;;24.40;1.00;;;;;;7389871;19;20022;-69
2023/07/23 06:14:25;;;;;;;2.08;1.70;;;24.20;1.00;;;;;;7389957;19;20091;-69
2023/07/23 06:16:55;;;;;;;2.63;1.95;;;24.40;1.00;;;;;;7392446;19;20334;-69
2023/07/23 06:19:25;;;;;;;4.30;2.30;;;24.70;1.00;;;;;;7396568;19;20018;-69
2023/07/23 06:21:55;;;;;;;2.95;2.20;;;24.40;1.00;;;;;;7397608;19;20042;-69
2023/07/23 06:24:27;;;;;;;5.75;1.92;;;24.10;1.00;;;;;;7397056;19;20082;-69
2023/07/23 06:26:57;;;;;;;4.93;2.00;;;23.70;1.00;;;;;;7397675;19;20018;-69
2023/07/23 06:29:28;;;;;;;4.28;2.10;;;23.30;1.00;;;;;;7396469;19;20018;-68
2023/07/23 06:31:59;;;;;;;2.63;1.83;;;23.60;1.00;;;;;;7397178;19;20082;-69
2023/07/23 06:34:29;;;;;;;2.60;2.22;;;23.40;1.00;;;;;;7396080;19;20010;-69
2023/07/23 06:36:59;;;;;;;2.22;1.90;;;23.80;1.00;;;;;;7396747;19;20503;-70
2023/07/23 06:39:31;;;;;;;2.33;1.90;;;23.90;1.00;;;;;;7396495;19;20081;-69
2023/07/23 06:42:01;;;;;;;2.53;1.90;;;24.00;1.00;;;;;;7396726;19;20022;-69
2023/07/23 06:44:31;;;;;;;2.35;1.77;;;24.10;1.00;;;;;;7395965;19;20018;-69
2023/07/23 06:47:01;;;;;;;2.92;2.00;;;24.30;1.00;;;;;;7393567;19;20021;-69
2023/07/23 06:49:31;;;;;;;2.10;1.80;;;24.10;1.00;;;;;;7395644;19;20038;-69
2023/07/23 06:52:01;;;;;;;4.80;1.85;;;24.30;1.00;;;;;;7396458;19;20011;-69
2023/07/23 06:54:38;;;;;;;3.35;2.30;;;24.70;1.00;;;;;;7395449;19;20018;-69
2023/07/23 06:57:08;;;;;;;6.53;2.05;;;24.30;1.00;;;;;;7396205;19;20021;-70
2023/07/23 06:59:38;;;;;;;7.05;2.10;;;24.90;1.00;;;;;;7395195;19;20036;-68
2023/07/23 07:02:09;;;;;;;10.27;1.95;;;25.20;1.00;;;;;;7395782;19;20022;-69
2023/07/23 07:04:40;;;;;;;4.68;1.83;;;25.30;1.00;;;;;;7394746;19;20039;-69
2023/07/23 07:07:09;;;;;;;3.83;2.10;;;25.00;1.00;;;;;;7393493;19;20074;-69
2023/07/23 07:09:42;;;;;;;3.90;2.10;;;25.10;1.00;;;;;;7394910;19;20018;-69
2023/07/23 07:12:12;;;;;;;4.18;2.20;;;25.00;1.00;;;;;;7395023;19;20493;-69
2023/07/23 07:14:42;;;;;;;2.58;1.83;;;25.00;1.00;;;;;;7395468;19;20006;-68
2023/07/23 07:17:12;;;;;;;2.60;2.00;;;24.90;1.00;;;;;;7395882;19;20018;-68
2023/07/23 07:19:42;;;;;;;2.85;1.88;;;24.60;1.00;;;;;;7394426;19;20465;-69
2023/07/23 07:22:11;;;;;;;4.63;2.30;;;25.00;1.00;;;;;;7394930;19;20018;-69
2023/07/23 07:24:44;;;;;;;3.33;2.15;;;24.60;1.00;;;;;;7394685;19;20494;-69
2023/07/23 07:27:15;;;;;;;2.90;1.70;;;25.40;1.00;;;;;;7391363;19;21006;-69
2023/07/23 07:29:45;;;;;;;2.80;2.00;;;25.80;1.00;;;;;;7393370;19;20022;-69
2023/07/23 07:32:14;;;;;;;4.70;1.67;;;25.60;1.00;;;;;;7395351;19;20078;-70
2023/07/23 07:34:44;;;;;;;2.13;1.90;;;25.10;1.00;;;;;;7394174;19;20015;-69
2023/07/23 07:37:14;;;;;;;4.03;1.88;;;25.40;1.00;;;;;;7394810;19;20395;-70
2023/07/23 07:39:47;;;;;;;2.20;1.73;;;25.40;1.00;;;;;;7393972;19;20127;-69
2023/07/23 07:42:17;;;;;;;4.00;1.88;;;25.60;1.00;;;;;;7394794;19;20046;-70
2023/07/23 07:44:46;;;;;;;5.00;1.80;;;25.80;1.00;;;;;;7393950;19;20054;-69
2023/07/23 07:47:16;;;;;;;4.57;2.00;;;25.50;1.00;;;;;;7393442;19;20039;-70
2023/07/23 07:49:46;;;;;;;3.53;2.22;;;25.90;1.00;;;;;;7393364;19;20035;-70
2023/07/23 07:52:16;;;;;;;4.18;2.10;;;26.00;1.00;;;;;;7394232;19;20019;-69
2023/07/23 07:54:49;;;;;;;2.50;2.00;;;26.20;1.00;;;;;;7394087;19;20014;-69
2023/07/23 07:57:19;;;;;;;4.13;1.85;;;25.80;1.00;;;;;;7393667;19;20038;-69
2023/07/23 07:59:50;;;;;;;3.42;2.17;;;26.00;1.00;;;;;;7393007;19;20018;-68
2023/07/23 08:02:20;;;;;;;3.72;2.03;;;26.10;1.00;;;;;;7392067;19;20026;-69
2023/07/23 08:04:51;;;;;;;3.90;1.90;;;26.00;1.00;;;;;;7393249;19;20018;-70
2023/07/23 08:07:27;;;;;;;3.20;1.98;;;25.70;1.00;;;;;;7390989;19;20014;-69
2023/07/23 08:10:02;;;;;;;3.47;1.80;;;26.00;1.00;;;;;;7393256;19;20018;-69
2023/07/23 08:12:33;;;;;;;2.17;1.90;;;25.50;1.00;;;;;;7393201;19;20014;-69
2023/07/23 08:15:04;;;;;;;4.63;2.22;;;25.80;1.00;;;;;;7391320;19;20034;-68
2023/07/23 08:17:36;;;;;;;2.28;1.60;;;26.00;1.00;;;;;;7393501;19;20086;-69
2023/07/23 08:20:07;;;;;;;4.63;1.77;;;26.30;1.00;;;;;;7392568;19;20039;-69
2023/07/23 08:22:38;;;;;;;1.67;1.50;;;25.80;1.00;;;;;;7393157;19;20014;-68
2023/07/23 08:25:12;;;;;;;4.38;1.80;;;26.00;1.00;;;;;;7392032;19;20408;-68
2023/07/23 08:27:43;;;;;;;2.05;1.52;;;25.90;1.00;;;;;;7391541;19;20018;-68
2023/07/23 08:30:14;;;;;;;2.03;1.60;;;25.50;1.00;;;;;;7392042;19;20367;-69
2023/07/23 08:32:44;;;;;;;2.85;2.05;;;25.80;1.00;;;;;;7392579;19;20015;-69
2023/07/23 08:35:15;;;;;;;2.83;1.90;;;25.40;1.00;;;;;;7392422;19;20015;-69
2023/07/23 08:37:45;;;;;;;5.20;2.00;;;25.30;1.00;;;;;;7392719;19;20034;-69
2023/07/23 08:40:20;;;;;;;4.25;1.83;;;25.70;1.00;;;;;;7388944;19;20537;-69
2023/07/23 08:43:14;;;;;;;3.42;1.70;;;26.10;1.00;;;;;;7392453;19;20010;-69
2023/07/23 08:46:13;;;;;;;2.22;1.50;;;25.80;1.00;;;;;;7391870;19;20078;-69
2023/07/23 08:49:06;;;;;;;2.35;1.75;;;26.00;1.00;;;;;;7392088;19;20070;-68
2023/07/23 08:51:46;;;;;;;2.80;1.75;;;26.30;1.00;;;;;;7390700;19;20022;-69
2023/07/23 08:54:19;;;;;;;2.45;2.00;;;26.40;1.00;;;;;;7391958;19;20011;-69
2023/07/23 08:56:53;;;;;;;2.05;1.52;;;26.30;1.00;;;;;;7392637;19;20385;-69
2023/07/23 08:59:24;;;;;;;2.17;1.58;;;26.00;1.00;;;;;;7391920;19;20082;-70
2023/07/23 09:01:54;;;;;;;3.00;1.60;;;25.70;1.00;;;;;;7391999;19;20013;-69
2023/07/23 09:04:24;;;;;;;2.60;1.80;;;25.80;1.00;;;;;;7391544;19;20106;-69
2023/07/23 09:06:55;;;;;;;2.70;1.55;;;25.60;1.00;;;;;;7390640;19;20018;-69
2023/07/23 09:09:26;;;;;;;2.10;1.60;;;26.10;1.00;;;;;;7391334;19;20026;-69
2023/07/23 09:11:59;;;;;;;2.58;1.73;;;26.00;1.00;;;;;;7391494;19;20378;-69
2023/07/23 09:14:29;;;;;;;2.83;1.40;;;25.70;1.00;;;;;;7391167;19;20080;-69
2023/07/23 09:17:00;;;;;;;1.85;1.35;;;26.30;1.00;;;;;;7390507;19;20604;-69
2023/07/23 09:19:30;;;;;;;2.13;1.33;;;26.70;1.00;;;;;;7391210;19;20007;-69
2023/07/23 09:22:00;;;;;;;1.58;1.20;;;26.40;1.00;;;;;;7391684;19;20045;-69
2023/07/23 09:24:32;;;;;;;1.63;1.20;;;26.40;1.00;;;;;;7390760;19;20482;-69
2023/07/23 09:27:06;;;;;;;1.48;1.00;;;26.30;1.00;;;;;;7390685;19;20098;-69
2023/07/23 09:29:37;;;;;;;2.72;1.30;;;26.10;1.00;;;;;;7390661;19;20501;-68
2023/07/23 09:32:25;;;;;;;1.90;1.27;;;26.20;1.00;;;;;;7390863;19;20493;-68
2023/07/23 09:34:56;;;;;;;1.05;0.95;;;26.10;1.00;;;;;;7389923;19;20042;-69
2023/07/23 09:37:29;;;;;;;1.85;1.15;;;26.30;1.00;;;;;;7390798;19;20478;-70
2023/07/23 09:39:59;;;;;;;1.52;1.30;;;25.60;1.00;;;;;;7390062;19;20018;-68
2023/07/23 09:42:32;;;;;;;1.52;1.40;;;26.00;1.00;;;;;;7391735;19;20029;-69
2023/07/23 09:45:03;;;;;;;2.10;1.40;;;26.30;1.00;;;;;;7390316;19;20022;-68
2023/07/23 09:47:33;;;;;;;2.78;1.60;;;26.20;1.00;;;;;;7389853;19;20014;-69
2023/07/23 09:50:04;;;;;;;1.42;1.25;;;26.40;1.00;;;;;;7388441;19;20046;-69
2023/07/23 09:52:37;;;;;;;2.40;1.35;;;26.30;1.00;;;;;;7394474;19;20025;-69
2023/07/23 09:55:10;;;;;;;1.73;1.30;;;26.60;1.00;;;;;;7397829;19;20034;-69
2023/07/23 09:57:45;;;;;;;2.47;1.40;;;26.40;1.00;;;;;;7398016;19;20041;-69
2023/07/23 10:00:16;;;;;;;3.60;1.55;;;26.40;1.00;;;;;;7395726;19;20136;-69
2023/07/23 10:02:50;;;;;;;1.52;1.38;;;26.70;1.00;;;;;;7397918;19;20031;-70
2023/07/23 10:05:21;;;;;;;1.95;1.13;;;26.00;1.00;;;;;;7396416;19;20019;-69
2023/07/23 10:07:51;;;;;;;1.60;1.20;;;26.20;1.00;;;;;;7396594;19;20015;-70
2023/07/23 10:10:21;;;;;;;1.92;1.00;;;26.80;1.00;;;;;;7395407;19;20019;-69
2023/07/23 10:12:54;;;;;;;3.75;1.40;;;26.40;1.00;;;;;;7397585;19;20010;-68
2023/07/23 10:15:24;;;;;;;1.80;1.42;;;26.50;1.00;;;;;;7396170;19;20026;-70
2023/07/23 10:17:58;;;;;;;2.15;1.40;;;27.10;1.00;;;;;;7397281;19;20370;-68
2023/07/23 10:20:32;;;;;;;1.83;1.50;;;27.10;1.00;;;;;;7395323;19;20715;-69
2023/07/23 10:23:06;;;;;;;2.33;1.77;;;26.70;1.00;;;;;;7397341;19;20011;-69
2023/07/23 10:25:36;;;;;;;3.35;1.67;;;26.50;1.00;;;;;;7396002;19;20154;-68
2023/07/23 10:28:22;;;;;;;1.55;1.40;;;26.20;1.00;;;;;;7396005;19;20371;-69
2023/07/23 10:31:21;;;;;;;2.22;1.50;;;26.20;1.00;;;;;;7395329;19;20018;-69
2023/07/23 10:33:54;;;;;;;1.65;1.48;;;27.00;1.00;;;;;;7396005;19;20021;-69
2023/07/23 10:36:25;;;;;;;2.47;1.42;;;26.90;1.00;;;;;;7395232;19;20478;-69
2023/07/23 10:39:20;;;;;;;5.05;1.77;;;26.90;1.00;;;;;;7396447;19;20010;-68
2023/07/23 10:41:53;;;;;;;3.17;1.42;;;27.30;1.00;;;;;;7396586;19;20086;-68
2023/07/23 10:44:27;;;;;;;1.70;1.60;;;27.60;1.00;;;;;;7396725;19;20014;-69
2023/07/23 10:46:59;;;;;;;3.15;1.60;;;26.70;1.00;;;;;;7396948;19;20416;-69
2023/07/23 10:49:31;;;;;;;2.50;1.70;;;27.50;1.00;;;;;;7392514;19;20027;-70
2023/07/23 10:52:14;;;;;;;2.17;1.67;;;27.80;1.00;;;;;;7396455;19;20074;-70
2023/07/23 10:54:44;;;;;;;2.40;1.77;;;28.20;1.00;;;;;;7396200;19;20014;-70
2023/07/23 10:57:25;;;;;;;1.77;1.55;;;28.10;1.00;;;;;;7396135;19;20300;-69
2023/07/23 10:59:58;;;;;;;2.25;1.70;;;28.50;1.00;;;;;;7395245;19;20023;-70
2023/07/23 11:02:29;;;;;;;2.60;1.50;;;28.70;1.00;;;;;;7396154;19;20053;-69
2023/07/23 11:04:59;;;;;;;2.30;1.70;;;28.40;1.00;;;;;;7394003;19;20094;-69
2023/07/23 11:07:31;;;;;;;2.10;1.80;;;28.70;1.00;;;;;;7395405;19;20093;-70
2023/07/23 11:10:20;;;;;;;2.30;1.90;;;27.20;1.00;;;;;;7395274;19;20018;-69
2023/07/23 11:12:51;;;;;;;1.98;1.70;;;27.50;1.00;;;;;;7395730;19;20022;-70
2023/07/23 11:15:26;;;;;;;2.03;1.48;;;27.40;1.00;;;;;;7395434;19;20477;-69
2023/07/23 11:17:56;;;;;;;2.35;1.60;;;27.60;1.00;;;;;;7395885;19;20007;-69
2023/07/23 11:20:35;;;;;;;3.22;1.73;;;28.30;1.00;;;;;;7394504;19;20025;-69
2023/07/23 11:23:08;;;;;;;1.75;1.40;;;28.20;1.00;;;;;;7395519;19;20010;-70
2023/07/23 11:25:38;;;;;;;2.08;1.80;;;27.50;1.00;;;;;;7395300;19;20014;-69
2023/07/23 11:28:09;;;;;;;2.13;1.77;;;27.90;1.00;;;;;;7394462;19;20035;-68
2023/07/23 11:30:42;;;;;;;2.92;1.85;;;27.60;1.00;;;;;;7393707;19;20122;-69
2023/07/23 11:33:15;;;;;;;1.58;1.40;;;27.60;1.00;;;;;;7395443;19;20090;-69
2023/07/23 11:35:45;;;;;;;1.73;1.60;;;27.30;1.00;;;;;;7394969;19;20015;-68
2023/07/23 11:38:15;;;;;;;3.00;1.42;;;28.30;1.00;;;;;;7394954;19;20027;-70
2023/07/23 11:40:52;;;;;;;2.38;1.73;;;28.40;1.00;;;;;;7394135;19;20015;-70
2023/07/23 11:43:22;;;;;;;4.28;2.05;;;28.60;1.00;;;;;;7394625;19;20017;-70
2023/07/23 11:45:55;;;;;;;2.10;1.67;;;28.60;1.00;;;;;;7395329;19;20109;-69
2023/07/23 11:48:25;;;;;;;2.13;1.58;;;29.00;1.00;;;;;;7394078;19;20031;-69
2023/07/23 11:50:56;;;;;;;2.72;1.88;;;28.80;1.00;;;;;;7393639;19;20031;-70
2023/07/23 11:53:37;;;;;;;2.05;1.63;;;28.30;1.00;;;;;;7394005;19;20010;-70
2023/07/23 11:56:09;;;;;;;2.30;2.00;;;28.30;1.00;;;;;;7393616;19;20030;-70
2023/07/23 11:58:40;;;;;;;2.72;2.00;;;29.00;1.00;;;;;;7394023;19;20039;-69
2023/07/23 12:01:13;;;;;;;4.65;1.92;;;28.90;1.00;;;;;;7392847;19;20033;-70
2023/07/23 12:03:44;;;;;;;2.67;2.05;;;29.50;1.00;;;;;;7393351;19;20021;-69
2023/07/23 12:06:16;;;;;;;2.17;1.90;;;29.30;1.00;;;;;;7394118;19;20886;-69
2023/07/23 12:08:47;;;;;;;2.17;1.95;;;29.50;1.00;;;;;;7393369;19;20007;-70
2023/07/23 12:11:18;;;;;;;2.55;1.83;;;29.20;1.00;;;;;;7392763;19;20059;-70
2023/07/23 12:13:52;;;;;;;2.75;2.03;;;27.90;1.00;;;;;;7393333;19;20090;-70
2023/07/23 12:16:40;;;;;;;1.90;1.70;;;28.20;1.00;;;;;;7393563;19;20010;-69
2023/07/23 12:19:12;;;;;;;2.17;1.60;;;28.40;1.00;;;;;;7393637;19;20006;-70
2023/07/23 12:21:43;;;;;;;2.97;2.17;;;28.40;1.00;;;;;;7391852;19;20030;-69
2023/07/23 12:24:18;;;;;;;2.60;2.00;;;28.70;1.00;;;;;;7393428;19;20034;-69
2023/07/23 12:26:50;;;;;;;5.57;2.17;;;28.10;1.00;;;;;;7393284;19;20010;-70
2023/07/23 12:29:22;;;;;;;2.22;1.98;;;28.20;1.00;;;;;;7392353;19;20430;-69
2023/07/23 12:32:12;;;;;;;2.03;1.73;;;28.00;1.00;;;;;;7393483;19;20490;-68
2023/07/23 12:34:44;;;;;;;2.50;2.15;;;27.90;1.00;;;;;;7393516;19;20015;-69
2023/07/23 12:37:15;;;;;;;3.05;2.15;;;27.70;1.00;;;;;;7393108;19;20449;-70
2023/07/23 12:39:47;;;;;;;2.60;1.98;;;27.70;1.00;;;;;;7392878;19;20023;-69
2023/07/23 12:42:17;;;;;;;2.17;1.95;;;27.70;1.00;;;;;;7393072;19;20129;-69
2023/07/23 12:44:47;;;;;;;3.15;1.90;;;27.70;1.00;;;;;;7391712;19;20014;-70
2023/07/23 12:47:20;;;;;;;4.40;2.10;;;27.70;1.00;;;;;;7392467;19;20073;-69
2023/07/23 12:49:50;;;;;;;5.97;2.17;;;27.50;1.00;;;;;;7391349;19;20023;-70
2023/07/23 12:52:21;;;;;;;3.22;1.90;;;27.60;1.00;;;;;;7392905;19;20019;-69
2023/07/23 12:54:51;;;;;;;3.05;1.85;;;27.80;1.00;;;;;;7392864;19;20018;-69
2023/07/23 12:57:22;;;;;;;2.55;2.00;;;27.60;1.00;;;;;;7392878;19;20081;-70
2023/07/23 12:59:52;;;;;;;2.30;2.08;;;27.50;1.00;;;;;;7392112;19;20607;-70
2023/07/23 13:02:25;;;;;;;2.15;1.80;;;27.50;1.00;;;;;;7392243;19;20018;-69
2023/07/23 13:04:55;;;;;;;2.55;2.20;;;27.40;1.00;;;;;;7392617;19;20011;-70
2023/07/23 13:07:27;;;;;;;4.38;2.20;;;27.20;1.00;;;;;;7390557;19;20018;-68
2023/07/23 13:09:57;;;;;;;2.60;2.22;;;27.00;1.00;;;;;;7389930;19;20018;-69
2023/07/23 13:12:27;;;;;;;2.00;1.80;;;26.90;1.00;;;;;;7392240;19;20399;-69
2023/07/23 13:14:57;;;;;;;3.00;2.10;;;27.00;1.00;;;;;;7391668;19;20479;-70
2023/07/23 13:17:29;;;;;;;2.85;1.85;;;27.20;1.00;;;;;;7391045;19;20078;-69
2023/07/23 13:19:59;;;;;;;5.22;2.30;;;27.00;1.00;;;;;;7391503;19;20025;-69